X  Tanca Dades meteorològiques de l'aviació METAR     KDNN Dalton Municipal Airport
Temperatura
10°C Temperatura
10°C Rosada
100% Humitat



Vent
0 KM/H
0 MPH
0 M/S
0 NUS



Tranquil
N
Condicions actuals

Sense núvols Sense núvols
Pressió 1019.98 (hPa) - 30.12 (inHg)
Visibilitat 10 (milla) - 16.1 (km)
Aeroport
Codi aeroport KDNN

Ubicació: Dalton Municipal Airport
Distància: 34 (km)

Metar:
KDNN 250615Z AUTO 00000KT 10SM CLR 10/10 A3012 RMK AO2 T01000100

Temps: 04-25-2024 02:15 EDT